sensor_id;sensor_type;location;lat;lon;timestamp;P1;durP1;ratioP1;P2;durP2;ratioP2
12467;SDS011;57850;52.922;6.256;2023-03-01T00:00:37;19.57;;;14.90;;
12467;SDS011;57850;52.922;6.256;2023-03-01T00:03:04;20.97;;;15.10;;
12467;SDS011;57850;52.922;6.256;2023-03-01T00:05:32;23.13;;;13.97;;
12467;SDS011;57850;52.922;6.256;2023-03-01T00:07:58;20.63;;;15.63;;
12467;SDS011;57850;52.922;6.256;2023-03-01T00:10:25;19.87;;;15.63;;
12467;SDS011;57850;52.922;6.256;2023-03-01T00:12:52;24.13;;;15.57;;
12467;SDS011;57850;52.922;6.256;2023-03-01T00:15:19;20.73;;;15.57;;
12467;SDS011;57850;52.922;6.256;2023-03-01T00:17:46;20.67;;;15.27;;
12467;SDS011;57850;52.922;6.256;2023-03-01T00:20:12;21.03;;;15.80;;
12467;SDS011;57850;52.922;6.256;2023-03-01T00:22:40;21.67;;;15.27;;
12467;SDS011;57850;52.922;6.256;2023-03-01T00:25:07;24.20;;;14.73;;
12467;SDS011;57850;52.922;6.256;2023-03-01T00:27:34;22.07;;;15.53;;
12467;SDS011;57850;52.922;6.256;2023-03-01T00:30:01;19.07;;;15.20;;
12467;SDS011;57850;52.922;6.256;2023-03-01T00:32:27;21.53;;;15.30;;
12467;SDS011;57850;52.922;6.256;2023-03-01T00:34:55;18.77;;;15.33;;
12467;SDS011;57850;52.922;6.256;2023-03-01T00:37:22;20.43;;;15.57;;
12467;SDS011;57850;52.922;6.256;2023-03-01T00:39:50;22.37;;;16.43;;
12467;SDS011;57850;52.922;6.256;2023-03-01T00:42:17;23.77;;;16.50;;
12467;SDS011;57850;52.922;6.256;2023-03-01T00:44:43;25.37;;;16.70;;
12467;SDS011;57850;52.922;6.256;2023-03-01T00:47:10;24.17;;;17.10;;
12467;SDS011;57850;52.922;6.256;2023-03-01T00:49:36;28.43;;;17.60;;
12467;SDS011;57850;52.922;6.256;2023-03-01T00:52:03;32.30;;;18.80;;
12467;SDS011;57850;52.922;6.256;2023-03-01T00:54:30;28.33;;;18.63;;
12467;SDS011;57850;52.922;6.256;2023-03-01T00:56:58;27.10;;;18.67;;
12467;SDS011;57850;52.922;6.256;2023-03-01T00:59:25;25.83;;;16.90;;
12467;SDS011;57850;52.922;6.256;2023-03-01T01:01:52;26.00;;;16.93;;
12467;SDS011;57850;52.922;6.256;2023-03-01T01:04:18;22.60;;;17.60;;
12467;SDS011;57850;52.922;6.256;2023-03-01T01:06:45;22.67;;;16.00;;
12467;SDS011;57850;52.922;6.256;2023-03-01T01:09:13;24.57;;;17.03;;
12467;SDS011;57850;52.922;6.256;2023-03-01T01:11:43;24.27;;;16.07;;
12467;SDS011;57850;52.922;6.256;2023-03-01T01:14:11;22.93;;;16.77;;
12467;SDS011;57850;52.922;6.256;2023-03-01T01:16:38;24.60;;;16.70;;
12467;SDS011;57850;52.922;6.256;2023-03-01T01:19:05;22.10;;;15.70;;
12467;SDS011;57850;52.922;6.256;2023-03-01T01:21:32;24.67;;;16.40;;
12467;SDS011;57850;52.922;6.256;2023-03-01T01:23:59;22.00;;;15.40;;
12467;SDS011;57850;52.922;6.256;2023-03-01T01:26:29;21.90;;;16.10;;
12467;SDS011;57850;52.922;6.256;2023-03-01T01:28:58;26.13;;;17.10;;
12467;SDS011;57850;52.922;6.256;2023-03-01T01:31:27;21.50;;;15.70;;
12467;SDS011;57850;52.922;6.256;2023-03-01T01:33:55;22.67;;;15.00;;
12467;SDS011;57850;52.922;6.256;2023-03-01T01:36:22;27.67;;;16.27;;
12467;SDS011;57850;52.922;6.256;2023-03-01T01:38:49;23.97;;;15.63;;
12467;SDS011;57850;52.922;6.256;2023-03-01T01:41:16;19.90;;;15.20;;
12467;SDS011;57850;52.922;6.256;2023-03-01T01:43:44;22.93;;;14.07;;
12467;SDS011;57850;52.922;6.256;2023-03-01T01:46:15;22.73;;;15.10;;
12467;SDS011;57850;52.922;6.256;2023-03-01T01:48:49;19.77;;;14.73;;
12467;SDS011;57850;52.922;6.256;2023-03-01T01:51:21;20.57;;;14.80;;
12467;SDS011;57850;52.922;6.256;2023-03-01T01:53:53;21.17;;;14.37;;
12467;SDS011;57850;52.922;6.256;2023-03-01T01:56:24;20.17;;;14.57;;
12467;SDS011;57850;52.922;6.256;2023-03-01T01:58:53;24.67;;;16.87;;
12467;SDS011;57850;52.922;6.256;2023-03-01T02:01:21;29.13;;;18.10;;
12467;SDS011;57850;52.922;6.256;2023-03-01T02:03:49;29.50;;;18.83;;
12467;SDS011;57850;52.922;6.256;2023-03-01T02:06:17;30.93;;;19.63;;
12467;SDS011;57850;52.922;6.256;2023-03-01T02:08:48;32.30;;;21.23;;
12467;SDS011;57850;52.922;6.256;2023-03-01T02:11:17;33.70;;;20.23;;
12467;SDS011;57850;52.922;6.256;2023-03-01T02:13:45;33.53;;;20.63;;
12467;SDS011;57850;52.922;6.256;2023-03-01T02:16:13;39.33;;;19.67;;
12467;SDS011;57850;52.922;6.256;2023-03-01T02:18:41;32.07;;;21.23;;
12467;SDS011;57850;52.922;6.256;2023-03-01T02:21:13;42.43;;;21.47;;
12467;SDS011;57850;52.922;6.256;2023-03-01T02:23:52;30.97;;;18.70;;
12467;SDS011;57850;52.922;6.256;2023-03-01T02:26:21;29.07;;;19.10;;
12467;SDS011;57850;52.922;6.256;2023-03-01T02:28:57;31.53;;;19.93;;
12467;SDS011;57850;52.922;6.256;2023-03-01T02:31:24;49.43;;;21.30;;
12467;SDS011;57850;52.922;6.256;2023-03-01T02:34:10;102.40;;;21.90;;
12467;SDS011;57850;52.922;6.256;2023-03-01T02:36:39;62.17;;;20.33;;
12467;SDS011;57850;52.922;6.256;2023-03-01T02:39:10;58.00;;;18.40;;
12467;SDS011;57850;52.922;6.256;2023-03-01T02:41:43;97.47;;;18.80;;
12467;SDS011;57850;52.922;6.256;2023-03-01T02:44:14;85.77;;;21.63;;
12467;SDS011;57850;52.922;6.256;2023-03-01T02:46:44;104.33;;;20.03;;
12467;SDS011;57850;52.922;6.256;2023-03-01T02:49:22;52.23;;;17.10;;
12467;SDS011;57850;52.922;6.256;2023-03-01T02:51:53;65.20;;;16.90;;
12467;SDS011;57850;52.922;6.256;2023-03-01T02:54:33;65.47;;;17.23;;
12467;SDS011;57850;52.922;6.256;2023-03-01T02:57:05;65.37;;;17.87;;
12467;SDS011;57850;52.922;6.256;2023-03-01T02:59:34;59.27;;;16.73;;
12467;SDS011;57850;52.922;6.256;2023-03-01T03:02:04;59.00;;;16.70;;
12467;SDS011;57850;52.922;6.256;2023-03-01T03:04:30;71.03;;;15.83;;
12467;SDS011;57850;52.922;6.256;2023-03-01T03:06:57;40.60;;;15.33;;
12467;SDS011;57850;52.922;6.256;2023-03-01T03:09:24;35.73;;;14.87;;
12467;SDS011;57850;52.922;6.256;2023-03-01T03:11:50;65.47;;;17.60;;
12467;SDS011;57850;52.922;6.256;2023-03-01T03:14:17;43.93;;;16.07;;
12467;SDS011;57850;52.922;6.256;2023-03-01T03:16:45;46.90;;;15.23;;
12467;SDS011;57850;52.922;6.256;2023-03-01T03:19:14;29.47;;;15.27;;
12467;SDS011;57850;52.922;6.256;2023-03-01T03:21:41;42.27;;;15.40;;
12467;SDS011;57850;52.922;6.256;2023-03-01T03:24:08;35.33;;;16.37;;
12467;SDS011;57850;52.922;6.256;2023-03-01T03:26:35;34.67;;;15.43;;
12467;SDS011;57850;52.922;6.256;2023-03-01T03:29:01;35.63;;;14.70;;
12467;SDS011;57850;52.922;6.256;2023-03-01T03:31:28;44.37;;;15.93;;
12467;SDS011;57850;52.922;6.256;2023-03-01T03:33:56;42.80;;;15.13;;
12467;SDS011;57850;52.922;6.256;2023-03-01T03:36:24;28.47;;;14.33;;
12467;SDS011;57850;52.922;6.256;2023-03-01T03:38:50;29.50;;;15.60;;
12467;SDS011;57850;52.922;6.256;2023-03-01T03:41:17;26.90;;;14.63;;
12467;SDS011;57850;52.922;6.256;2023-03-01T03:43:44;24.20;;;15.77;;
12467;SDS011;57850;52.922;6.256;2023-03-01T03:46:11;37.73;;;16.77;;
12467;SDS011;57850;52.922;6.256;2023-03-01T03:48:38;24.37;;;15.83;;
12467;SDS011;57850;52.922;6.256;2023-03-01T03:51:09;30.70;;;16.03;;
12467;SDS011;57850;52.922;6.256;2023-03-01T03:53:36;34.13;;;17.17;;
12467;SDS011;57850;52.922;6.256;2023-03-01T03:56:04;33.33;;;16.43;;
12467;SDS011;57850;52.922;6.256;2023-03-01T03:58:31;31.13;;;15.50;;
12467;SDS011;57850;52.922;6.256;2023-03-01T04:00:58;28.87;;;16.10;;
12467;SDS011;57850;52.922;6.256;2023-03-01T04:03:27;26.83;;;15.37;;
12467;SDS011;57850;52.922;6.256;2023-03-01T04:05:56;35.17;;;15.90;;
12467;SDS011;57850;52.922;6.256;2023-03-01T04:08:25;20.97;;;14.53;;
12467;SDS011;57850;52.922;6.256;2023-03-01T04:10:56;27.17;;;16.53;;
12467;SDS011;57850;52.922;6.256;2023-03-01T04:13:24;27.13;;;14.93;;
12467;SDS011;57850;52.922;6.256;2023-03-01T04:15:51;24.40;;;15.20;;
12467;SDS011;57850;52.922;6.256;2023-03-01T04:18:18;20.13;;;14.27;;
12467;SDS011;57850;52.922;6.256;2023-03-01T04:20:46;17.20;;;12.97;;
12467;SDS011;57850;52.922;6.256;2023-03-01T04:23:14;28.53;;;14.87;;
12467;SDS011;57850;52.922;6.256;2023-03-01T04:25:47;23.60;;;14.37;;
12467;SDS011;57850;52.922;6.256;2023-03-01T04:28:18;28.13;;;15.87;;
12467;SDS011;57850;52.922;6.256;2023-03-01T04:30:45;29.33;;;13.77;;
12467;SDS011;57850;52.922;6.256;2023-03-01T04:33:12;24.63;;;13.33;;
12467;SDS011;57850;52.922;6.256;2023-03-01T04:35:38;24.23;;;14.50;;
12467;SDS011;57850;52.922;6.256;2023-03-01T04:38:05;22.63;;;14.63;;
12467;SDS011;57850;52.922;6.256;2023-03-01T04:40:32;20.83;;;15.37;;
12467;SDS011;57850;52.922;6.256;2023-03-01T04:43:00;20.00;;;14.03;;
12467;SDS011;57850;52.922;6.256;2023-03-01T04:45:27;22.33;;;14.90;;
12467;SDS011;57850;52.922;6.256;2023-03-01T04:47:54;23.00;;;15.63;;
12467;SDS011;57850;52.922;6.256;2023-03-01T04:50:23;20.87;;;15.07;;
12467;SDS011;57850;52.922;6.256;2023-03-01T04:52:50;21.27;;;14.90;;
12467;SDS011;57850;52.922;6.256;2023-03-01T04:55:17;19.83;;;14.03;;
12467;SDS011;57850;52.922;6.256;2023-03-01T04:57:44;20.43;;;15.03;;
12467;SDS011;57850;52.922;6.256;2023-03-01T05:00:13;20.83;;;14.73;;
12467;SDS011;57850;52.922;6.256;2023-03-01T05:02:46;21.83;;;14.83;;
12467;SDS011;57850;52.922;6.256;2023-03-01T05:05:18;21.50;;;15.13;;
12467;SDS011;57850;52.922;6.256;2023-03-01T05:07:45;23.73;;;16.87;;
12467;SDS011;57850;52.922;6.256;2023-03-01T05:10:12;22.57;;;15.50;;
12467;SDS011;57850;52.922;6.256;2023-03-01T05:12:38;21.47;;;15.20;;
12467;SDS011;57850;52.922;6.256;2023-03-01T05:15:06;19.10;;;14.17;;
12467;SDS011;57850;52.922;6.256;2023-03-01T05:17:34;20.43;;;14.93;;
12467;SDS011;57850;52.922;6.256;2023-03-01T05:20:01;19.97;;;13.87;;
12467;SDS011;57850;52.922;6.256;2023-03-01T05:22:32;23.23;;;15.97;;
12467;SDS011;57850;52.922;6.256;2023-03-01T05:24:59;22.73;;;14.60;;
12467;SDS011;57850;52.922;6.256;2023-03-01T05:27:26;19.43;;;14.00;;
12467;SDS011;57850;52.922;6.256;2023-03-01T05:29:54;20.57;;;14.07;;
12467;SDS011;57850;52.922;6.256;2023-03-01T05:32:21;20.23;;;14.43;;
12467;SDS011;57850;52.922;6.256;2023-03-01T05:34:49;19.03;;;13.43;;
12467;SDS011;57850;52.922;6.256;2023-03-01T05:37:17;20.00;;;14.07;;
12467;SDS011;57850;52.922;6.256;2023-03-01T05:39:44;20.27;;;14.60;;
12467;SDS011;57850;52.922;6.256;2023-03-01T05:42:11;21.83;;;15.23;;
12467;SDS011;57850;52.922;6.256;2023-03-01T05:44:37;19.50;;;14.77;;
12467;SDS011;57850;52.922;6.256;2023-03-01T05:47:04;20.90;;;15.07;;
12467;SDS011;57850;52.922;6.256;2023-03-01T05:49:31;19.63;;;13.67;;
12467;SDS011;57850;52.922;6.256;2023-03-01T05:51:59;21.20;;;14.33;;
12467;SDS011;57850;52.922;6.256;2023-03-01T05:54:26;21.53;;;14.47;;
12467;SDS011;57850;52.922;6.256;2023-03-01T05:56:53;20.13;;;13.77;;
12467;SDS011;57850;52.922;6.256;2023-03-01T05:59:19;19.23;;;13.70;;
12467;SDS011;57850;52.922;6.256;2023-03-01T06:01:46;20.57;;;14.07;;
12467;SDS011;57850;52.922;6.256;2023-03-01T06:04:12;20.33;;;14.97;;
12467;SDS011;57850;52.922;6.256;2023-03-01T06:06:39;20.03;;;14.77;;
12467;SDS011;57850;52.922;6.256;2023-03-01T06:09:07;20.60;;;14.73;;
12467;SDS011;57850;52.922;6.256;2023-03-01T06:11:35;21.70;;;15.20;;
12467;SDS011;57850;52.922;6.256;2023-03-01T06:14:02;21.83;;;15.00;;
12467;SDS011;57850;52.922;6.256;2023-03-01T06:16:29;19.10;;;13.73;;
12467;SDS011;57850;52.922;6.256;2023-03-01T06:18:56;22.00;;;15.13;;
12467;SDS011;57850;52.922;6.256;2023-03-01T06:21:23;20.10;;;15.30;;
12467;SDS011;57850;52.922;6.256;2023-03-01T06:23:49;21.17;;;14.73;;
12467;SDS011;57850;52.922;6.256;2023-03-01T06:26:18;22.17;;;14.87;;
12467;SDS011;57850;52.922;6.256;2023-03-01T06:28:44;20.67;;;14.43;;
12467;SDS011;57850;52.922;6.256;2023-03-01T06:31:11;18.90;;;13.80;;
12467;SDS011;57850;52.922;6.256;2023-03-01T06:33:38;19.83;;;13.93;;
12467;SDS011;57850;52.922;6.256;2023-03-01T06:36:05;20.80;;;14.43;;
12467;SDS011;57850;52.922;6.256;2023-03-01T06:38:32;19.70;;;13.87;;
12467;SDS011;57850;52.922;6.256;2023-03-01T06:40:58;21.00;;;14.77;;
12467;SDS011;57850;52.922;6.256;2023-03-01T06:43:28;22.20;;;14.60;;
12467;SDS011;57850;52.922;6.256;2023-03-01T06:45:54;17.77;;;12.87;;
12467;SDS011;57850;52.922;6.256;2023-03-01T06:48:21;18.13;;;12.97;;
12467;SDS011;57850;52.922;6.256;2023-03-01T06:50:47;18.30;;;13.43;;
12467;SDS011;57850;52.922;6.256;2023-03-01T06:53:14;18.27;;;12.80;;
12467;SDS011;57850;52.922;6.256;2023-03-01T06:55:41;18.50;;;13.00;;
12467;SDS011;57850;52.922;6.256;2023-03-01T06:58:08;18.10;;;14.13;;
12467;SDS011;57850;52.922;6.256;2023-03-01T07:00:36;18.13;;;13.23;;
12467;SDS011;57850;52.922;6.256;2023-03-01T07:03:05;19.37;;;12.70;;
12467;SDS011;57850;52.922;6.256;2023-03-01T07:05:32;19.27;;;13.83;;
12467;SDS011;57850;52.922;6.256;2023-03-01T07:07:59;19.17;;;13.33;;
12467;SDS011;57850;52.922;6.256;2023-03-01T07:10:26;18.83;;;13.33;;
12467;SDS011;57850;52.922;6.256;2023-03-01T07:12:54;18.80;;;13.23;;
12467;SDS011;57850;52.922;6.256;2023-03-01T07:15:21;17.97;;;12.87;;
12467;SDS011;57850;52.922;6.256;2023-03-01T07:17:49;18.10;;;13.20;;
12467;SDS011;57850;52.922;6.256;2023-03-01T07:20:16;21.03;;;13.77;;
12467;SDS011;57850;52.922;6.256;2023-03-01T07:22:43;18.60;;;12.90;;
12467;SDS011;57850;52.922;6.256;2023-03-01T07:25:10;18.33;;;12.93;;
12467;SDS011;57850;52.922;6.256;2023-03-01T07:27:36;21.10;;;13.77;;
12467;SDS011;57850;52.922;6.256;2023-03-01T07:30:03;19.10;;;13.87;;
12467;SDS011;57850;52.922;6.256;2023-03-01T07:32:30;22.87;;;14.70;;
12467;SDS011;57850;52.922;6.256;2023-03-01T07:34:58;18.90;;;14.00;;
12467;SDS011;57850;52.922;6.256;2023-03-01T07:37:25;18.93;;;13.37;;
12467;SDS011;57850;52.922;6.256;2023-03-01T07:39:51;18.20;;;13.70;;
12467;SDS011;57850;52.922;6.256;2023-03-01T07:42:18;20.20;;;14.27;;
12467;SDS011;57850;52.922;6.256;2023-03-01T07:44:44;19.97;;;14.73;;
12467;SDS011;57850;52.922;6.256;2023-03-01T07:47:11;24.80;;;15.77;;
12467;SDS011;57850;52.922;6.256;2023-03-01T07:49:37;26.30;;;16.97;;
12467;SDS011;57850;52.922;6.256;2023-03-01T07:52:05;27.57;;;17.70;;
12467;SDS011;57850;52.922;6.256;2023-03-01T07:54:32;24.67;;;17.40;;
12467;SDS011;57850;52.922;6.256;2023-03-01T07:56:58;22.97;;;16.77;;
12467;SDS011;57850;52.922;6.256;2023-03-01T07:59:28;25.30;;;17.47;;
12467;SDS011;57850;52.922;6.256;2023-03-01T08:01:54;28.87;;;16.87;;
12467;SDS011;57850;52.922;6.256;2023-03-01T08:04:21;23.23;;;17.37;;
12467;SDS011;57850;52.922;6.256;2023-03-01T08:06:49;25.30;;;17.23;;
12467;SDS011;57850;52.922;6.256;2023-03-01T08:09:17;26.87;;;17.67;;
12467;SDS011;57850;52.922;6.256;2023-03-01T08:11:44;28.77;;;19.40;;
12467;SDS011;57850;52.922;6.256;2023-03-01T08:14:10;28.27;;;16.83;;
12467;SDS011;57850;52.922;6.256;2023-03-01T08:16:37;28.87;;;18.17;;
12467;SDS011;57850;52.922;6.256;2023-03-01T08:19:04;26.73;;;19.50;;
12467;SDS011;57850;52.922;6.256;2023-03-01T08:21:31;26.07;;;19.20;;
12467;SDS011;57850;52.922;6.256;2023-03-01T08:23:59;27.73;;;19.47;;
12467;SDS011;57850;52.922;6.256;2023-03-01T08:26:27;34.53;;;22.03;;
12467;SDS011;57850;52.922;6.256;2023-03-01T08:28:54;30.07;;;21.40;;
12467;SDS011;57850;52.922;6.256;2023-03-01T08:31:21;32.53;;;21.23;;
12467;SDS011;57850;52.922;6.256;2023-03-01T08:33:50;24.13;;;19.03;;
12467;SDS011;57850;52.922;6.256;2023-03-01T08:36:20;22.53;;;16.63;;
12467;SDS011;57850;52.922;6.256;2023-03-01T08:38:47;21.67;;;16.80;;
12467;SDS011;57850;52.922;6.256;2023-03-01T08:41:14;18.77;;;14.93;;
12467;SDS011;57850;52.922;6.256;2023-03-01T08:43:42;21.03;;;16.10;;
12467;SDS011;57850;52.922;6.256;2023-03-01T08:46:09;19.20;;;15.85;;
12467;SDS011;57850;52.922;6.256;2023-03-01T08:48:36;18.08;;;14.68;;
12467;SDS011;57850;52.922;6.256;2023-03-01T08:51:09;19.33;;;15.27;;
12467;SDS011;57850;52.922;6.256;2023-03-01T08:53:37;17.15;;;14.52;;
12467;SDS011;57850;52.922;6.256;2023-03-01T08:56:04;17.60;;;15.38;;
12467;SDS011;57850;52.922;6.256;2023-03-01T08:58:31;17.23;;;14.68;;
12467;SDS011;57850;52.922;6.256;2023-03-01T09:00:59;16.83;;;14.85;;
12467;SDS011;57850;52.922;6.256;2023-03-01T09:03:26;17.17;;;15.30;;
12467;SDS011;57850;52.922;6.256;2023-03-01T09:05:53;18.10;;;15.02;;
12467;SDS011;57850;52.922;6.256;2023-03-01T09:08:26;20.80;;;15.38;;
12467;SDS011;57850;52.922;6.256;2023-03-01T09:10:53;18.75;;;14.90;;
12467;SDS011;57850;52.922;6.256;2023-03-01T09:13:19;18.80;;;16.08;;
12467;SDS011;57850;52.922;6.256;2023-03-01T09:15:48;20.05;;;16.30;;
12467;SDS011;57850;52.922;6.256;2023-03-01T09:18:16;19.67;;;17.25;;
12467;SDS011;57850;52.922;6.256;2023-03-01T09:20:43;19.40;;;15.95;;
12467;SDS011;57850;52.922;6.256;2023-03-01T09:23:09;19.95;;;16.70;;
12467;SDS011;57850;52.922;6.256;2023-03-01T09:25:36;20.42;;;16.98;;
12467;SDS011;57850;52.922;6.256;2023-03-01T09:28:03;21.60;;;16.75;;
12467;SDS011;57850;52.922;6.256;2023-03-01T09:30:29;19.27;;;16.23;;
12467;SDS011;57850;52.922;6.256;2023-03-01T09:32:56;18.77;;;15.27;;
12467;SDS011;57850;52.922;6.256;2023-03-01T09:35:24;22.15;;;16.35;;
12467;SDS011;57850;52.922;6.256;2023-03-01T09:37:50;17.95;;;15.65;;
12467;SDS011;57850;52.922;6.256;2023-03-01T09:40:18;18.70;;;16.20;;
12467;SDS011;57850;52.922;6.256;2023-03-01T09:42:50;21.42;;;16.35;;
12467;SDS011;57850;52.922;6.256;2023-03-01T09:45:24;22.10;;;16.35;;
12467;SDS011;57850;52.922;6.256;2023-03-01T09:47:54;24.45;;;17.42;;
12467;SDS011;57850;52.922;6.256;2023-03-01T09:50:23;19.17;;;16.48;;
12467;SDS011;57850;52.922;6.256;2023-03-01T09:52:58;21.42;;;17.30;;
12467;SDS011;57850;52.922;6.256;2023-03-01T09:55:29;20.95;;;16.67;;
12467;SDS011;57850;52.922;6.256;2023-03-01T09:57:59;20.25;;;16.42;;
12467;SDS011;57850;52.922;6.256;2023-03-01T10:00:36;22.55;;;17.45;;
12467;SDS011;57850;52.922;6.256;2023-03-01T10:03:09;18.88;;;16.63;;
12467;SDS011;57850;52.922;6.256;2023-03-01T10:05:43;18.08;;;15.98;;
12467;SDS011;57850;52.922;6.256;2023-03-01T10:08:24;22.15;;;17.20;;
12467;SDS011;57850;52.922;6.256;2023-03-01T10:10:56;19.42;;;17.15;;
12467;SDS011;57850;52.922;6.256;2023-03-01T10:13:24;20.50;;;16.77;;
12467;SDS011;57850;52.922;6.256;2023-03-01T10:15:55;19.27;;;16.75;;
12467;SDS011;57850;52.922;6.256;2023-03-01T10:18:25;20.98;;;17.58;;
12467;SDS011;57850;52.922;6.256;2023-03-01T10:20:56;19.20;;;16.10;;
12467;SDS011;57850;52.922;6.256;2023-03-01T10:23:24;17.73;;;15.82;;
12467;SDS011;57850;52.922;6.256;2023-03-01T10:26:08;23.77;;;16.38;;
12467;SDS011;57850;52.922;6.256;2023-03-01T10:29:05;16.92;;;14.65;;
12467;SDS011;57850;52.922;6.256;2023-03-01T10:31:37;15.38;;;13.77;;
12467;SDS011;57850;52.922;6.256;2023-03-01T10:34:09;16.73;;;14.93;;
12467;SDS011;57850;52.922;6.256;2023-03-01T10:36:39;16.13;;;14.43;;
12467;SDS011;57850;52.922;6.256;2023-03-01T10:39:12;16.83;;;15.13;;
12467;SDS011;57850;52.922;6.256;2023-03-01T10:44:48;16.25;;;14.55;;
12467;SDS011;57850;52.922;6.256;2023-03-01T10:47:17;13.75;;;12.38;;
12467;SDS011;57850;52.922;6.256;2023-03-01T10:49:53;12.85;;;11.65;;
12467;SDS011;57850;52.922;6.256;2023-03-01T10:52:24;14.20;;;12.05;;
12467;SDS011;57850;52.922;6.256;2023-03-01T10:54:54;14.20;;;12.80;;
12467;SDS011;57850;52.922;6.256;2023-03-01T10:57:28;15.05;;;13.50;;
12467;SDS011;57850;52.922;6.256;2023-03-01T11:03:09;18.65;;;14.07;;
12467;SDS011;57850;52.922;6.256;2023-03-01T11:05:44;15.73;;;13.18;;
12467;SDS011;57850;52.922;6.256;2023-03-01T11:08:28;13.50;;;12.10;;
12467;SDS011;57850;52.922;6.256;2023-03-01T11:11:03;14.95;;;12.95;;
12467;SDS011;57850;52.922;6.256;2023-03-01T11:13:32;15.95;;;14.27;;
12467;SDS011;57850;52.922;6.256;2023-03-01T11:15:59;15.13;;;13.55;;
12467;SDS011;57850;52.922;6.256;2023-03-01T11:18:27;14.43;;;12.88;;
12467;SDS011;57850;52.922;6.256;2023-03-01T11:20:56;18.92;;;15.25;;
12467;SDS011;57850;52.922;6.256;2023-03-01T11:23:24;15.43;;;13.82;;
12467;SDS011;57850;52.922;6.256;2023-03-01T11:25:55;15.07;;;13.48;;
12467;SDS011;57850;52.922;6.256;2023-03-01T11:28:24;14.45;;;13.05;;
12467;SDS011;57850;52.922;6.256;2023-03-01T11:30:54;14.43;;;12.93;;
12467;SDS011;57850;52.922;6.256;2023-03-01T11:33:24;15.52;;;13.75;;
12467;SDS011;57850;52.922;6.256;2023-03-01T11:36:05;16.30;;;14.60;;
12467;SDS011;57850;52.922;6.256;2023-03-01T11:38:37;15.35;;;13.52;;
12467;SDS011;57850;52.922;6.256;2023-03-01T11:41:07;15.38;;;13.07;;
12467;SDS011;57850;52.922;6.256;2023-03-01T11:43:41;15.05;;;13.05;;
12467;SDS011;57850;52.922;6.256;2023-03-01T11:46:33;14.18;;;12.77;;
12467;SDS011;57850;52.922;6.256;2023-03-01T11:49:14;15.95;;;14.35;;
12467;SDS011;57850;52.922;6.256;2023-03-01T11:51:52;16.65;;;14.30;;
12467;SDS011;57850;52.922;6.256;2023-03-01T11:54:27;17.50;;;14.60;;
12467;SDS011;57850;52.922;6.256;2023-03-01T11:57:03;17.17;;;13.65;;
12467;SDS011;57850;52.922;6.256;2023-03-01T12:02:59;18.17;;;15.32;;
12467;SDS011;57850;52.922;6.256;2023-03-01T12:08:35;19.20;;;16.63;;
12467;SDS011;57850;52.922;6.256;2023-03-01T12:11:10;14.70;;;13.07;;
12467;SDS011;57850;52.922;6.256;2023-03-01T12:16:57;16.80;;;14.07;;
12467;SDS011;57850;52.922;6.256;2023-03-01T12:22:29;15.27;;;13.25;;
12467;SDS011;57850;52.922;6.256;2023-03-01T12:25:06;14.75;;;12.05;;
12467;SDS011;57850;52.922;6.256;2023-03-01T12:27:50;14.70;;;13.20;;
12467;SDS011;57850;52.922;6.256;2023-03-01T12:30:31;15.07;;;13.40;;
12467;SDS011;57850;52.922;6.256;2023-03-01T12:33:12;14.48;;;12.13;;
12467;SDS011;57850;52.922;6.256;2023-03-01T12:38:50;13.52;;;11.90;;
12467;SDS011;57850;52.922;6.256;2023-03-01T12:44:19;13.07;;;11.77;;
12467;SDS011;57850;52.922;6.256;2023-03-01T12:47:03;13.95;;;12.43;;
12467;SDS011;57850;52.922;6.256;2023-03-01T12:49:40;13.13;;;11.65;;
12467;SDS011;57850;52.922;6.256;2023-03-01T12:52:13;13.85;;;12.45;;
12467;SDS011;57850;52.922;6.256;2023-03-01T12:54:44;13.32;;;11.52;;
12467;SDS011;57850;52.922;6.256;2023-03-01T12:57:12;13.00;;;11.65;;
12467;SDS011;57850;52.922;6.256;2023-03-01T12:59:47;13.57;;;12.18;;
12467;SDS011;57850;52.922;6.256;2023-03-01T13:02:28;13.05;;;11.75;;
12467;SDS011;57850;52.922;6.256;2023-03-01T13:05:05;13.65;;;12.25;;
12467;SDS011;57850;52.922;6.256;2023-03-01T13:07:48;14.45;;;12.95;;
12467;SDS011;57850;52.922;6.256;2023-03-01T13:10:22;13.18;;;11.77;;
12467;SDS011;57850;52.922;6.256;2023-03-01T13:13:03;13.70;;;12.38;;
12467;SDS011;57850;52.922;6.256;2023-03-01T13:15:40;14.07;;;12.48;;
12467;SDS011;57850;52.922;6.256;2023-03-01T13:18:30;13.90;;;12.32;;
12467;SDS011;57850;52.922;6.256;2023-03-01T13:21:00;15.35;;;13.75;;
12467;SDS011;57850;52.922;6.256;2023-03-01T13:23:31;13.93;;;12.50;;
12467;SDS011;57850;52.922;6.256;2023-03-01T13:26:02;14.30;;;12.65;;
12467;SDS011;57850;52.922;6.256;2023-03-01T13:34:48;13.80;;;11.95;;
12467;SDS011;57850;52.922;6.256;2023-03-01T13:37:22;14.57;;;12.80;;
12467;SDS011;57850;52.922;6.256;2023-03-01T13:39:54;15.25;;;11.73;;
12467;SDS011;57850;52.922;6.256;2023-03-01T13:42:36;13.63;;;12.10;;
12467;SDS011;57850;52.922;6.256;2023-03-01T13:45:14;13.73;;;11.93;;
12467;SDS011;57850;52.922;6.256;2023-03-01T13:47:45;14.00;;;12.13;;
12467;SDS011;57850;52.922;6.256;2023-03-01T13:50:18;13.98;;;12.48;;
12467;SDS011;57850;52.922;6.256;2023-03-01T13:52:50;14.45;;;12.93;;
12467;SDS011;57850;52.922;6.256;2023-03-01T13:55:23;14.82;;;13.32;;
12467;SDS011;57850;52.922;6.256;2023-03-01T13:57:53;14.25;;;12.75;;
12467;SDS011;57850;52.922;6.256;2023-03-01T14:00:30;14.93;;;12.30;;
12467;SDS011;57850;52.922;6.256;2023-03-01T14:03:00;14.30;;;12.50;;
12467;SDS011;57850;52.922;6.256;2023-03-01T14:05:32;14.70;;;12.52;;
12467;SDS011;57850;52.922;6.256;2023-03-01T14:08:02;14.77;;;12.43;;
12467;SDS011;57850;52.922;6.256;2023-03-01T14:10:31;13.70;;;12.25;;
12467;SDS011;57850;52.922;6.256;2023-03-01T14:13:08;13.73;;;11.68;;
12467;SDS011;57850;52.922;6.256;2023-03-01T14:15:50;15.63;;;12.95;;
12467;SDS011;57850;52.922;6.256;2023-03-01T14:18:30;15.07;;;13.23;;
12467;SDS011;57850;52.922;6.256;2023-03-01T14:21:07;16.27;;;12.52;;
12467;SDS011;57850;52.922;6.256;2023-03-01T14:23:37;15.02;;;12.85;;
12467;SDS011;57850;52.922;6.256;2023-03-01T14:26:07;15.18;;;12.75;;
12467;SDS011;57850;52.922;6.256;2023-03-01T14:28:37;15.65;;;13.18;;
12467;SDS011;57850;52.922;6.256;2023-03-01T14:33:59;15.52;;;13.80;;
12467;SDS011;57850;52.922;6.256;2023-03-01T14:36:27;15.93;;;13.02;;
12467;SDS011;57850;52.922;6.256;2023-03-01T14:38:56;16.10;;;14.02;;
12467;SDS011;57850;52.922;6.256;2023-03-01T14:41:30;17.88;;;13.65;;
12467;SDS011;57850;52.922;6.256;2023-03-01T14:44:00;15.95;;;13.02;;
12467;SDS011;57850;52.922;6.256;2023-03-01T14:46:29;17.55;;;12.93;;
12467;SDS011;57850;52.922;6.256;2023-03-01T14:48:58;14.05;;;12.52;;
12467;SDS011;57850;52.922;6.256;2023-03-01T14:51:30;14.52;;;12.50;;
12467;SDS011;57850;52.922;6.256;2023-03-01T14:54:02;14.73;;;11.88;;
12467;SDS011;57850;52.922;6.256;2023-03-01T14:56:32;13.85;;;12.13;;
12467;SDS011;57850;52.922;6.256;2023-03-01T14:59:10;15.73;;;12.55;;
12467;SDS011;57850;52.922;6.256;2023-03-01T15:01:39;14.60;;;12.07;;
12467;SDS011;57850;52.922;6.256;2023-03-01T15:04:09;14.50;;;11.50;;
12467;SDS011;57850;52.922;6.256;2023-03-01T15:06:44;17.42;;;14.18;;
12467;SDS011;57850;52.922;6.256;2023-03-01T15:09:14;17.58;;;14.40;;